Country
Station

 

Weather  for  Raleigh/Durham, Raleigh-Durham International Airport  -  United States    United States

  
17 °C (63 °F)
    
 
 

Current METAR for Raleigh/Durham, Raleigh-Durham International Airport is :

KRDU 192051Z 33011G25KT 290V020 10SM FEW070 17/02 A2998 RMK AO2 PK WND 30027/2006 SLP148 T01670017 53048

 

This is a report for Raleigh/Durham, Raleigh-Durham International Airport - United States.
 
The report was made 27 minutes ago, at 20:51 UTC .
The wind was blowing at a speed of 5.7 meters per second (12.7 miles per hour) with gusts up to 12.9 meters per second (28.8 miles per hour) from north/northwest (330°), varying between west/northwest (290°) and north/northeast (020°).
 
The temperature was 17 °C (63 °F), with a dew-point at 2 °C (36 °F).
The atmospheric pressure was 1015 hPa (29.98 inHg).
The relative humidity was 36.4%.
 
There were a few clouds at a height of 2134 meters (7000 feet).
 
The overall visibility was 16.1 kilometers (10.0 miles).
 

 
 
 
 

Country :   A   B   C   D   E   F   G   H   I   J   K   L   M   N   O   P   Q   R   S   T   U   V   W   Y   Z

 

Site Info  |  Disclaimer  |  Credits  |  Privacy
Contact us  |  Add to favorites
© 2013-2018 METARs - All rights reserved